sensor_id;sensor_type;location;lat;lon;timestamp;pressure;altitude;pressure_sealevel;temperature;humidity
4123;BME280;2075;51.062;6.920;2023-02-04T00:00:11;76578.66;;;-144.48;100.00
4123;BME280;2075;51.062;6.920;2023-02-04T00:02:57;74489.31;;;-144.48;100.00
4123;BME280;2075;51.062;6.920;2023-02-04T00:05:44;71349.59;;;-144.48;100.00
4123;BME280;2075;51.062;6.920;2023-02-04T00:08:33;70080.38;;;-144.48;100.00
4123;BME280;2075;51.062;6.920;2023-02-04T00:11:20;66354.19;;;-144.48;100.00
4123;BME280;2075;51.062;6.920;2023-02-04T00:14:06;66354.19;;;-144.48;100.00
4123;BME280;2075;51.062;6.920;2023-02-04T00:16:51;61199.09;;;-144.48;100.00
4123;BME280;2075;51.062;6.920;2023-02-04T00:19:36;57852.44;;;-144.48;100.00
4123;BME280;2075;51.062;6.920;2023-02-04T00:22:23;57595.16;;;-144.48;100.00
4123;BME280;2075;51.062;6.920;2023-02-04T00:25:11;54766.19;;;-144.48;100.00
4123;BME280;2075;51.062;6.920;2023-02-04T00:27:57;53481.06;;;-144.48;100.00
4123;BME280;2075;51.062;6.920;2023-02-04T00:30:42;49885.31;;;-144.48;100.00
4123;BME280;2075;51.062;6.920;2023-02-04T00:33:28;50142.03;;;-144.48;100.00
4123;BME280;2075;51.062;6.920;2023-02-04T00:36:13;48602.03;;;-144.48;100.00
4123;BME280;2075;51.062;6.920;2023-02-04T00:39:00;46293.41;;;-144.48;100.00
4123;BME280;2075;51.062;6.920;2023-02-04T00:41:46;43986.31;;;-144.48;100.00
4123;BME280;2075;51.062;6.920;2023-02-04T00:44:31;47832.31;;;-144.48;100.00
4123;BME280;2075;51.062;6.920;2023-02-04T00:47:17;47575.78;;;-144.48;100.00
4123;BME280;2075;51.062;6.920;2023-02-04T00:50:02;43473.84;;;-144.48;100.00
4123;BME280;2075;51.062;6.920;2023-02-04T00:52:48;42449.16;;;-144.48;100.00
4123;BME280;2075;51.062;6.920;2023-02-04T00:55:35;41424.75;;;-144.48;100.00
4123;BME280;2075;51.062;6.920;2023-02-04T00:58:22;43473.84;;;-144.48;100.00
4123;BME280;2075;51.062;6.920;2023-02-04T01:01:07;44498.88;;;-144.48;100.00
4123;BME280;2075;51.062;6.920;2023-02-04T01:03:56;42193.03;;;-144.48;100.00
4123;BME280;2075;51.062;6.920;2023-02-04T01:06:41;41936.91;;;-144.48;100.00
4123;BME280;2075;51.062;6.920;2023-02-04T01:09:27;42449.16;;;-144.48;100.00
4123;BME280;2075;51.062;6.920;2023-02-04T01:12:14;46036.97;;;-144.48;100.00
4123;BME280;2075;51.062;6.920;2023-02-04T01:14:59;46806.28;;;-144.48;100.00
4123;BME280;2075;51.062;6.920;2023-02-04T01:17:45;46549.84;;;-144.48;100.00
4123;BME280;2075;51.062;6.920;2023-02-04T01:20:30;47062.78;;;-144.48;100.00
4123;BME280;2075;51.062;6.920;2023-02-04T01:23:16;48345.44;;;-144.48;100.00
4123;BME280;2075;51.062;6.920;2023-02-04T01:26:01;48345.44;;;-144.48;100.00
4123;BME280;2075;51.062;6.920;2023-02-04T01:28:49;47832.31;;;-144.48;100.00
4123;BME280;2075;51.062;6.920;2023-02-04T01:31:34;49628.63;;;-144.48;100.00
4123;BME280;2075;51.062;6.920;2023-02-04T01:34:19;51169.06;;;-144.48;100.00
4123;BME280;2075;51.062;6.920;2023-02-04T01:37:06;50912.28;;;-144.48;100.00
4123;BME280;2075;51.062;6.920;2023-02-04T01:39:51;51169.06;;;-144.48;100.00
4123;BME280;2075;51.062;6.920;2023-02-04T01:42:37;48602.03;;;-144.48;100.00
4123;BME280;2075;51.062;6.920;2023-02-04T01:45:23;48858.66;;;-144.48;100.00
4123;BME280;2075;51.062;6.920;2023-02-04T01:48:08;49115.28;;;-144.48;100.00
4123;BME280;2075;51.062;6.920;2023-02-04T01:51:00;46293.41;;;-144.48;100.00
4123;BME280;2075;51.062;6.920;2023-02-04T01:53:46;46549.84;;;-144.48;100.00
4123;BME280;2075;51.062;6.920;2023-02-04T01:56:32;45524.19;;;-144.48;100.00
4123;BME280;2075;51.062;6.920;2023-02-04T01:59:17;40656.66;;;-144.48;100.00
4123;BME280;2075;51.062;6.920;2023-02-04T02:02:38;39376.91;;;-144.48;100.00
4123;BME280;2075;51.062;6.920;2023-02-04T02:05:29;38865.16;;;-144.48;100.00
4123;BME280;2075;51.062;6.920;2023-02-04T02:08:16;39121.03;;;-144.48;100.00
4123;BME280;2075;51.062;6.920;2023-02-04T02:11:02;36307.50;;;-144.48;100.00
4123;BME280;2075;51.062;6.920;2023-02-04T02:13:49;37074.59;;;-144.48;100.00
4123;BME280;2075;51.062;6.920;2023-02-04T02:16:35;38097.66;;;-144.48;100.00
4123;BME280;2075;51.062;6.920;2023-02-04T02:19:26;35029.38;;;-144.48;100.00
4123;BME280;2075;51.062;6.920;2023-02-04T02:22:17;35029.38;;;-144.48;100.00
4123;BME280;2075;51.062;6.920;2023-02-04T02:25:13;34518.28;;;-144.48;100.00
4123;BME280;2075;51.062;6.920;2023-02-04T02:28:02;36051.84;;;-144.48;100.00
4123;BME280;2075;51.062;6.920;2023-02-04T02:30:49;38609.28;;;-144.48;100.00
4123;BME280;2075;51.062;6.920;2023-02-04T02:33:34;39888.75;;;-144.48;100.00
4123;BME280;2075;51.062;6.920;2023-02-04T02:36:20;40656.66;;;-144.48;100.00
4123;BME280;2075;51.062;6.920;2023-02-04T02:39:08;41680.84;;;-144.48;100.00
4123;BME280;2075;51.062;6.920;2023-02-04T02:41:55;41168.72;;;-144.48;100.00
4123;BME280;2075;51.062;6.920;2023-02-04T02:44:41;40656.66;;;-144.48;100.00
4123;BME280;2075;51.062;6.920;2023-02-04T02:47:28;40912.69;;;-144.48;100.00
4123;BME280;2075;51.062;6.920;2023-02-04T02:50:19;40400.69;;;-144.48;100.00
4123;BME280;2075;51.062;6.920;2023-02-04T02:53:09;38865.16;;;-144.48;100.00
4123;BME280;2075;51.062;6.920;2023-02-04T02:55:56;39121.03;;;-144.48;100.00
4123;BME280;2075;51.062;6.920;2023-02-04T02:58:44;39632.81;;;-144.48;100.00
4123;BME280;2075;51.062;6.920;2023-02-04T03:01:29;39121.03;;;-144.48;100.00
4123;BME280;2075;51.062;6.920;2023-02-04T03:04:16;36307.50;;;-144.48;100.00
4123;BME280;2075;51.062;6.920;2023-02-04T03:07:03;37330.31;;;-144.48;100.00
4123;BME280;2075;51.062;6.920;2023-02-04T03:09:48;37074.59;;;-144.48;100.00
4123;BME280;2075;51.062;6.920;2023-02-04T03:12:36;35284.97;;;-144.48;100.00
4123;BME280;2075;51.062;6.920;2023-02-04T03:15:23;34262.75;;;-144.48;100.00
4123;BME280;2075;51.062;6.920;2023-02-04T03:18:09;32474.66;;;-144.48;100.00
4123;BME280;2075;51.062;6.920;2023-02-04T03:20:56;31708.63;;;-144.48;100.00
4123;BME280;2075;51.062;6.920;2023-02-04T03:23:41;31198.03;;;-144.48;100.00
4123;BME280;2075;51.062;6.920;2023-02-04T03:26:27;31198.03;;;-144.48;100.00
4123;BME280;2075;51.062;6.920;2023-02-04T03:29:12;32730.03;;;-144.48;100.00
4123;BME280;2075;51.062;6.920;2023-02-04T03:32:00;32985.44;;;-144.48;100.00
4123;BME280;2075;51.062;6.920;2023-02-04T03:34:46;31198.03;;;-144.48;100.00
4123;BME280;2075;51.062;6.920;2023-02-04T03:37:31;29411.56;;;-144.48;100.00
4123;BME280;2075;51.062;6.920;2023-02-04T03:40:17;30177.06;;;-144.48;100.00
4123;BME280;2075;51.062;6.920;2023-02-04T03:43:02;30177.06;;;-144.48;100.00
4123;BME280;2075;51.062;6.920;2023-02-04T03:45:47;27881.03;;;-144.48;100.00
4123;BME280;2075;51.062;6.920;2023-02-04T03:48:34;25841.47;;;-144.48;100.00
4123;BME280;2075;51.062;6.920;2023-02-04T03:51:20;25076.94;;;-144.48;100.00
4123;BME280;2075;51.062;6.920;2023-02-04T03:54:05;23803.16;;;-144.48;100.00
4123;BME280;2075;51.062;6.920;2023-02-04T03:56:51;22020.63;;;-144.48;100.00
4123;BME280;2075;51.062;6.920;2023-02-04T03:59:36;19730.22;;;-144.48;100.00
4123;BME280;2075;51.062;6.920;2023-02-04T04:02:22;18712.78;;;-144.48;100.00
4123;BME280;2075;51.062;6.920;2023-02-04T04:05:09;18204.19;;;-144.48;100.00
4123;BME280;2075;51.062;6.920;2023-02-04T04:07:54;18712.78;;;-144.48;100.00
4123;BME280;2075;51.062;6.920;2023-02-04T04:10:39;16933.00;;;-144.48;100.00
4123;BME280;2075;51.062;6.920;2023-02-04T04:13:25;15916.41;;;-144.48;100.00
4123;BME280;2075;51.062;6.920;2023-02-04T04:16:10;14392.13;;;-144.48;100.00
4123;BME280;2075;51.062;6.920;2023-02-04T04:18:56;13122.41;;;-144.48;100.00
4123;BME280;2075;51.062;6.920;2023-02-04T04:21:43;12360.81;;;-144.48;100.00
4123;BME280;2075;51.062;6.920;2023-02-04T04:24:28;12360.81;;;-144.48;100.00
4123;BME280;2075;51.062;6.920;2023-02-04T04:27:13;10838.16;;;-144.48;100.00
4123;BME280;2075;51.062;6.920;2023-02-04T04:29:59;10838.16;;;-144.48;100.00
4123;BME280;2075;51.062;6.920;2023-02-04T04:32:44;9569.81;;;-144.48;100.00
4123;BME280;2075;51.062;6.920;2023-02-04T04:35:30;8555.47;;;-144.48;100.00
4123;BME280;2075;51.062;6.920;2023-02-04T04:38:17;8301.94;;;-144.48;100.00
4123;BME280;2075;51.062;6.920;2023-02-04T04:41:02;7794.94;;;-144.48;100.00
4123;BME280;2075;51.062;6.920;2023-02-04T04:43:48;8048.44;;;-144.48;100.00
4123;BME280;2075;51.062;6.920;2023-02-04T04:46:33;7034.56;;;-144.48;100.00
4123;BME280;2075;51.062;6.920;2023-02-04T04:49:19;7794.94;;;-144.48;100.00
4123;BME280;2075;51.062;6.920;2023-02-04T04:52:04;7541.47;;;-144.48;100.00
4123;BME280;2075;51.062;6.920;2023-02-04T04:54:51;7034.56;;;-144.48;100.00
4123;BME280;2075;51.062;6.920;2023-02-04T04:57:36;7288.00;;;-144.48;100.00
4123;BME280;2075;51.062;6.920;2023-02-04T05:00:22;6021.03;;;-144.48;100.00
4123;BME280;2075;51.062;6.920;2023-02-04T05:03:07;5261.06;;;-144.48;100.00
4123;BME280;2075;51.062;6.920;2023-02-04T05:05:53;4754.53;;;-144.48;100.00
4123;BME280;2075;51.062;6.920;2023-02-04T05:08:39;2982.25;;;-144.48;100.00
4123;BME280;2075;51.062;6.920;2023-02-04T05:11:25;2476.06;;;-144.48;100.00
4123;BME280;2075;51.062;6.920;2023-02-04T05:14:11;1463.94;;;-144.48;100.00
4123;BME280;2075;51.062;6.920;2023-02-04T05:16:56;2223.00;;;-144.48;100.00
4123;BME280;2075;51.062;6.920;2023-02-04T05:19:42;1969.97;;;-144.48;100.00
4123;BME280;2075;51.062;6.920;2023-02-04T05:22:27;1210.94;;;-144.48;100.00
4123;BME280;2075;51.062;6.920;2023-02-04T05:25:13;705.03;;;-144.48;100.00
4123;BME280;2075;51.062;6.920;2023-02-04T05:28:00;-306.56;;;-144.48;100.00
4123;BME280;2075;51.062;6.920;2023-02-04T05:30:46;-53.69;;;-144.48;100.00
4123;BME280;2075;51.062;6.920;2023-02-04T05:33:31;-53.69;;;-144.48;100.00
4123;BME280;2075;51.062;6.920;2023-02-04T05:36:17;-812.25;;;-144.48;100.00
4123;BME280;2075;51.062;6.920;2023-02-04T05:39:02;-812.25;;;-144.48;100.00
4123;BME280;2075;51.062;6.920;2023-02-04T05:41:48;-559.44;;;-144.48;100.00
4123;BME280;2075;51.062;6.920;2023-02-04T05:44:35;-1065.06;;;-144.48;100.00
4123;BME280;2075;51.062;6.920;2023-02-04T05:47:20;-1570.63;;;-144.48;100.00
4123;BME280;2075;51.062;6.920;2023-02-04T05:50:06;-2328.84;;;-144.48;100.00
4123;BME280;2075;51.062;6.920;2023-02-04T05:52:52;-2328.84;;;-144.48;100.00
4123;BME280;2075;51.062;6.920;2023-02-04T05:55:37;-2076.13;;;-144.48;100.00
4123;BME280;2075;51.062;6.920;2023-02-04T05:58:23;-1570.63;;;-144.48;100.00
4123;BME280;2075;51.062;6.920;2023-02-04T06:01:10;-2328.84;;;-144.48;100.00
4123;BME280;2075;51.062;6.920;2023-02-04T06:03:55;-2581.53;;;-144.48;100.00
4123;BME280;2075;51.062;6.920;2023-02-04T06:06:41;-2328.84;;;-144.48;100.00
4123;BME280;2075;51.062;6.920;2023-02-04T06:09:26;-2076.13;;;-144.48;100.00
4123;BME280;2075;51.062;6.920;2023-02-04T06:12:12;-2328.84;;;-144.48;100.00
4123;BME280;2075;51.062;6.920;2023-02-04T06:14:57;-2834.19;;;-144.48;100.00
4123;BME280;2075;51.062;6.920;2023-02-04T06:17:45;-3339.50;;;-144.48;100.00
4123;BME280;2075;51.062;6.920;2023-02-04T06:20:34;-2834.19;;;-144.48;100.00
4123;BME280;2075;51.062;6.920;2023-02-04T06:23:20;-4097.28;;;-144.48;100.00
4123;BME280;2075;51.062;6.920;2023-02-04T06:26:05;-3844.69;;;-144.48;100.00
4123;BME280;2075;51.062;6.920;2023-02-04T06:28:50;-4349.84;;;-144.48;100.00
4123;BME280;2075;51.062;6.920;2023-02-04T06:31:36;-3844.69;;;-144.48;100.00
4123;BME280;2075;51.062;6.920;2023-02-04T06:34:23;-4349.84;;;-144.48;100.00
4123;BME280;2075;51.062;6.920;2023-02-04T06:37:08;-4349.84;;;-144.48;100.00
4123;BME280;2075;51.062;6.920;2023-02-04T06:39:54;-4602.38;;;-144.48;100.00
4123;BME280;2075;51.062;6.920;2023-02-04T06:42:40;-4349.84;;;-144.48;100.00
4123;BME280;2075;51.062;6.920;2023-02-04T06:45:26;-4097.28;;;-144.48;100.00
4123;BME280;2075;51.062;6.920;2023-02-04T06:48:11;-3592.09;;;-144.48;100.00
4123;BME280;2075;51.062;6.920;2023-02-04T06:50:58;-4349.84;;;-144.48;100.00
4123;BME280;2075;51.062;6.920;2023-02-04T06:53:44;-4602.38;;;-144.48;100.00
4123;BME280;2075;51.062;6.920;2023-02-04T06:56:29;-5107.41;;;-144.48;100.00
4123;BME280;2075;51.062;6.920;2023-02-04T06:59:14;-5612.34;;;-144.48;100.00
4123;BME280;2075;51.062;6.920;2023-02-04T07:02:00;-3592.09;;;-144.48;100.00
4123;BME280;2075;51.062;6.920;2023-02-04T07:04:46;-3339.50;;;-144.48;100.00
4123;BME280;2075;51.062;6.920;2023-02-04T07:07:34;-4602.38;;;-144.48;100.00
4123;BME280;2075;51.062;6.920;2023-02-04T07:10:19;-5107.41;;;-144.48;100.00
4123;BME280;2075;51.062;6.920;2023-02-04T07:13:05;-5107.41;;;-144.48;100.00
4123;BME280;2075;51.062;6.920;2023-02-04T07:15:50;-5107.41;;;-144.48;100.00
4123;BME280;2075;51.062;6.920;2023-02-04T07:18:36;-5359.88;;;-144.48;100.00
4123;BME280;2075;51.062;6.920;2023-02-04T07:21:21;-4854.91;;;-144.48;100.00
4123;BME280;2075;51.062;6.920;2023-02-04T07:24:08;-5107.41;;;-144.48;100.00
4123;BME280;2075;51.062;6.920;2023-02-04T07:26:54;-4854.91;;;-144.48;100.00
4123;BME280;2075;51.062;6.920;2023-02-04T07:29:39;-4602.38;;;-144.48;100.00
4123;BME280;2075;51.062;6.920;2023-02-04T07:32:25;-4854.91;;;-144.48;100.00
4123;BME280;2075;51.062;6.920;2023-02-04T07:35:15;-4602.38;;;-144.48;100.00
4123;BME280;2075;51.062;6.920;2023-02-04T07:38:02;-2834.19;;;-144.48;100.00
4123;BME280;2075;51.062;6.920;2023-02-04T07:40:49;-559.44;;;-144.48;100.00
4123;BME280;2075;51.062;6.920;2023-02-04T07:43:34;1716.94;;;-144.48;100.00
4123;BME280;2075;51.062;6.920;2023-02-04T07:46:20;3235.38;;;-144.48;100.00
4123;BME280;2075;51.062;6.920;2023-02-04T07:49:05;3488.53;;;-144.48;100.00
4123;BME280;2075;51.062;6.920;2023-02-04T07:51:50;3994.88;;;-144.48;100.00
4123;BME280;2075;51.062;6.920;2023-02-04T07:54:36;4248.06;;;-144.48;100.00
4123;BME280;2075;51.062;6.920;2023-02-04T07:57:23;3235.38;;;-144.48;100.00
4123;BME280;2075;51.062;6.920;2023-02-04T08:00:20;4248.06;;;-144.48;100.00
4123;BME280;2075;51.062;6.920;2023-02-04T08:03:06;4501.28;;;-144.48;100.00
4123;BME280;2075;51.062;6.920;2023-02-04T08:05:52;3741.69;;;-144.48;100.00
4123;BME280;2075;51.062;6.920;2023-02-04T08:08:37;5261.06;;;-144.48;100.00
4123;BME280;2075;51.062;6.920;2023-02-04T08:11:26;6274.38;;;-144.48;100.00
4123;BME280;2075;51.062;6.920;2023-02-04T08:14:13;8809.03;;;-144.48;100.00
4123;BME280;2075;51.062;6.920;2023-02-04T08:16:59;12614.66;;;-144.48;100.00
4123;BME280;2075;51.062;6.920;2023-02-04T08:19:47;15662.31;;;-144.48;100.00
4123;BME280;2075;51.062;6.920;2023-02-04T08:22:33;17695.66;;;-144.48;100.00
4123;BME280;2075;51.062;6.920;2023-02-04T08:25:19;21002.47;;;-144.48;100.00
4123;BME280;2075;51.062;6.920;2023-02-04T08:28:05;25841.47;;;-144.48;100.00
4123;BME280;2075;51.062;6.920;2023-02-04T08:30:51;30432.28;;;-144.48;100.00
4123;BME280;2075;51.062;6.920;2023-02-04T08:33:37;34007.25;;;-144.48;100.00
4123;BME280;2075;51.062;6.920;2023-02-04T08:36:22;34773.81;;;-144.48;100.00
4123;BME280;2075;51.062;6.920;2023-02-04T08:39:08;39888.75;;;-144.48;100.00
4123;BME280;2075;51.062;6.920;2023-02-04T08:41:53;43986.31;;;-144.48;100.00
4123;BME280;2075;51.062;6.920;2023-02-04T08:44:39;46293.41;;;-144.48;100.00
4123;BME280;2075;51.062;6.920;2023-02-04T08:47:26;49371.94;;;-144.48;100.00
4123;BME280;2075;51.062;6.920;2023-02-04T08:50:11;52967.16;;;-144.48;100.00
4123;BME280;2075;51.062;6.920;2023-02-04T08:52:57;57080.63;;;-144.48;100.00
4123;BME280;2075;51.062;6.920;2023-02-04T08:55:42;54509.13;;;-144.48;100.00
4123;BME280;2075;51.062;6.920;2023-02-04T08:58:28;49885.31;;;-144.48;100.00
4123;BME280;2075;51.062;6.920;2023-02-04T09:01:13;44242.59;;;-144.48;100.00
4123;BME280;2075;51.062;6.920;2023-02-04T09:04:00;43473.84;;;-144.48;100.00
4123;BME280;2075;51.062;6.920;2023-02-04T09:06:46;42193.03;;;-144.48;100.00
4123;BME280;2075;51.062;6.920;2023-02-04T09:09:31;43473.84;;;-144.48;100.00
4123;BME280;2075;51.062;6.920;2023-02-04T09:12:17;50398.75;;;-144.48;100.00
4123;BME280;2075;51.062;6.920;2023-02-04T09:15:03;58624.47;;;-144.48;100.00
4123;BME280;2075;51.062;6.920;2023-02-04T09:17:48;64549.03;;;-144.48;100.00
4123;BME280;2075;51.062;6.920;2023-02-04T09:20:35;69451.00;;;-144.48;100.00
4123;BME280;2075;51.062;6.920;2023-02-04T09:23:22;70651.38;;;-144.48;100.00
4123;BME280;2075;51.062;6.920;2023-02-04T09:26:07;73632.94;;;-144.48;100.00
4123;BME280;2075;51.062;6.920;2023-02-04T09:28:53;73840.94;;;-144.48;100.00
4123;BME280;2075;51.062;6.920;2023-02-04T09:31:38;75944.03;;;-144.48;100.00
4123;BME280;2075;51.062;6.920;2023-02-04T09:34:24;85532.41;;;-144.48;100.00
4123;BME280;2075;51.062;6.920;2023-02-04T09:37:11;68934.69;;;-144.48;100.00
4123;BME280;2075;51.062;6.920;2023-02-04T09:39:56;76016.81;;;-144.48;100.00
4123;BME280;2075;51.062;6.920;2023-02-04T09:42:42;84543.59;;;-144.48;100.00
4123;BME280;2075;51.062;6.920;2023-02-04T09:45:29;88459.97;;;-144.48;100.00
4123;BME280;2075;51.062;6.920;2023-02-04T09:48:14;89455.97;;;-144.48;100.00
4123;BME280;2075;51.062;6.920;2023-02-04T09:51:04;91434.66;;;-144.48;100.00
4123;BME280;2075;51.062;6.920;2023-02-04T09:53:52;92116.81;;;-144.48;100.00
4123;BME280;2075;51.062;6.920;2023-02-04T09:56:39;91513.84;;;-144.48;100.00
4123;BME280;2075;51.062;6.920;2023-02-04T09:59:26;90785.13;;;-144.48;100.00
4123;BME280;2075;51.062;6.920;2023-02-04T10:02:20;92163.50;;;-144.48;100.00
4123;BME280;2075;51.062;6.920;2023-02-04T10:05:12;92514.78;;;-144.48;100.00
4123;BME280;2075;51.062;6.920;2023-02-04T10:07:59;92216.31;;;-144.48;100.00
4123;BME280;2075;51.062;6.920;2023-02-04T10:10:47;93026.53;;;-144.48;100.00
4123;BME280;2075;51.062;6.920;2023-02-04T10:13:36;92108.69;;;-144.48;100.00
4123;BME280;2075;51.062;6.920;2023-02-04T10:16:24;92667.09;;;-144.48;99.31
4123;BME280;2075;51.062;6.920;2023-02-04T10:19:14;93337.28;;;-144.48;98.14
4123;BME280;2075;51.062;6.920;2023-02-04T10:21:59;93453.06;;;-144.48;97.79
4123;BME280;2075;51.062;6.920;2023-02-04T10:24:47;92677.25;;;-144.48;98.71
4123;BME280;2075;51.062;6.920;2023-02-04T10:27:34;93428.69;;;-144.48;96.89
4123;BME280;2075;51.062;6.920;2023-02-04T10:30:22;93345.41;;;-144.48;97.29
4123;BME280;2075;51.062;6.920;2023-02-04T10:33:13;93891.84;;;-144.48;95.28
4123;BME280;2075;51.062;6.920;2023-02-04T10:35:59;94056.38;;;-144.48;93.71
4123;BME280;2075;51.062;6.920;2023-02-04T10:38:58;93985.28;;;-144.48;95.42
4123;BME280;2075;51.062;6.920;2023-02-04T10:41:46;93674.47;;;-144.48;97.50
4123;BME280;2075;51.062;6.920;2023-02-04T10:44:34;93286.50;;;-144.48;97.57
4123;BME280;2075;51.062;6.920;2023-02-04T10:47:21;93853.22;;;-144.48;95.58
4123;BME280;2075;51.062;6.920;2023-02-04T10:50:17;94072.63;;;-144.48;93.40
4123;BME280;2075;51.062;6.920;2023-02-04T10:53:03;94257.50;;;-144.48;90.94
4123;BME280;2075;51.062;6.920;2023-02-04T10:56:14;94263.59;;;-144.48;90.60
4123;BME280;2075;51.062;6.920;2023-02-04T10:59:00;94263.59;;;-144.48;90.64
4123;BME280;2075;51.062;6.920;2023-02-04T11:01:47;94202.66;;;-144.48;91.53
4123;BME280;2075;51.062;6.920;2023-02-04T11:04:33;94204.69;;;-144.48;90.99
4123;BME280;2075;51.062;6.920;2023-02-04T11:07:19;94170.16;;;-144.48;90.51
4123;BME280;2075;51.062;6.920;2023-02-04T11:10:05;94324.56;;;-144.48;88.25
4123;BME280;2075;51.062;6.920;2023-02-04T11:13:01;94308.31;;;-144.48;88.00
4123;BME280;2075;51.062;6.920;2023-02-04T11:15:48;94377.38;;;-144.48;89.50
4123;BME280;2075;51.062;6.920;2023-02-04T11:18:46;94326.59;;;-144.48;87.47
4123;BME280;2075;51.062;6.920;2023-02-04T11:21:41;94324.56;;;-144.48;86.13
4123;BME280;2075;51.062;6.920;2023-02-04T11:24:32;94285.94;;;-144.48;85.97
4123;BME280;2075;51.062;6.920;2023-02-04T11:27:22;94342.84;;;-144.48;86.17
4123;BME280;2075;51.062;6.920;2023-02-04T11:30:19;94322.53;;;-144.48;86.80
4123;BME280;2075;51.062;6.920;2023-02-04T11:33:20;94302.22;;;-144.48;87.83
4123;BME280;2075;51.062;6.920;2023-02-04T11:36:09;94318.47;;;-144.48;86.82
4123;BME280;2075;51.062;6.920;2023-02-04T11:38:56;94306.28;;;-144.48;85.17
4123;BME280;2075;51.062;6.920;2023-02-04T11:41:43;94298.16;;;-144.48;84.27
4123;BME280;2075;51.062;6.920;2023-02-04T11:44:29;94308.31;;;-144.48;82.23
4123;BME280;2075;51.062;6.920;2023-02-04T11:47:14;94387.53;;;-144.48;80.84
4123;BME280;2075;51.062;6.920;2023-02-04T11:50:03;94334.72;;;-144.48;82.07
4123;BME280;2075;51.062;6.920;2023-02-04T11:52:50;94442.41;;;-144.48;81.83
4123;BME280;2075;51.062;6.920;2023-02-04T11:55:44;94415.97;;;-144.48;85.71
4123;BME280;2075;51.062;6.920;2023-02-04T11:58:30;94387.53;;;-144.48;83.52
4123;BME280;2075;51.062;6.920;2023-02-04T12:01:16;94314.41;;;-144.48;83.45
4123;BME280;2075;51.062;6.920;2023-02-04T12:04:04;94361.13;;;-144.48;81.34
4123;BME280;2075;51.062;6.920;2023-02-04T12:06:58;94340.81;;;-144.48;79.59
4123;BME280;2075;51.062;6.920;2023-02-04T12:09:47;94371.28;;;-144.48;80.00
4123;BME280;2075;51.062;6.920;2023-02-04T12:12:41;94342.84;;;-144.48;79.26
4123;BME280;2075;51.062;6.920;2023-02-04T12:15:31;94342.84;;;-144.48;79.05
4123;BME280;2075;51.062;6.920;2023-02-04T12:18:18;94322.53;;;-144.48;76.80
4123;BME280;2075;51.062;6.920;2023-02-04T12:21:04;94346.91;;;-144.48;76.82
4123;BME280;2075;51.062;6.920;2023-02-04T12:23:50;94415.97;;;-144.48;76.42
4123;BME280;2075;51.062;6.920;2023-02-04T12:26:36;94359.09;;;-144.48;76.85
4123;BME280;2075;51.062;6.920;2023-02-04T12:29:22;94401.75;;;-144.48;76.89
4123;BME280;2075;51.062;6.920;2023-02-04T12:32:07;94464.75;;;-144.48;76.78
4123;BME280;2075;51.062;6.920;2023-02-04T12:34:53;94485.06;;;-144.48;77.46
4123;BME280;2075;51.062;6.920;2023-02-04T12:37:39;94440.38;;;-144.48;76.53
4123;BME280;2075;51.062;6.920;2023-02-04T12:40:24;94346.91;;;-144.48;75.04
4123;BME280;2075;51.062;6.920;2023-02-04T12:43:11;94430.22;;;-144.48;73.44
4123;BME280;2075;51.062;6.920;2023-02-04T12:45:57;94407.84;;;-144.48;74.07
4123;BME280;2075;51.062;6.920;2023-02-04T12:48:42;94373.31;;;-144.48;75.31
4123;BME280;2075;51.062;6.920;2023-02-04T12:51:28;94444.44;;;-144.48;76.06
4123;BME280;2075;51.062;6.920;2023-02-04T12:54:13;94452.56;;;-144.48;75.58
4123;BME280;2075;51.062;6.920;2023-02-04T12:56:59;94501.31;;;-144.48;72.67
4123;BME280;2075;51.062;6.920;2023-02-04T12:59:47;94428.16;;;-144.48;75.65
4123;BME280;2075;51.062;6.920;2023-02-04T13:02:33;94505.38;;;-144.48;75.35
4123;BME280;2075;51.062;6.920;2023-02-04T13:05:18;94517.56;;;-144.48;73.15
4123;BME280;2075;51.062;6.920;2023-02-04T13:08:04;94497.25;;;-144.48;72.72
4123;BME280;2075;51.062;6.920;2023-02-04T13:10:49;94493.19;;;-144.48;76.36
4123;BME280;2075;51.062;6.920;2023-02-04T13:13:35;94513.50;;;-144.48;73.65
4123;BME280;2075;51.062;6.920;2023-02-04T13:16:22;94418.00;;;-144.48;74.09
4123;BME280;2075;51.062;6.920;2023-02-04T13:19:08;94503.34;;;-144.48;73.59
4123;BME280;2075;51.062;6.920;2023-02-04T13:21:54;94521.63;;;-144.48;76.12
4123;BME280;2075;51.062;6.920;2023-02-04T13:24:39;94568.38;;;-144.48;76.20
4123;BME280;2075;51.062;6.920;2023-02-04T13:27:24;94529.75;;;-144.48;78.28
4123;BME280;2075;51.062;6.920;2023-02-04T13:30:13;94515.53;;;-144.48;78.89
4123;BME280;2075;51.062;6.920;2023-02-04T13:32:59;94527.72;;;-144.48;77.43
4123;BME280;2075;51.062;6.920;2023-02-04T13:35:45;94546.03;;;-144.48;75.67
4123;BME280;2075;51.062;6.920;2023-02-04T13:38:30;94582.59;;;-144.48;75.56
4123;BME280;2075;51.062;6.920;2023-02-04T13:41:16;94554.16;;;-144.48;77.35
4123;BME280;2075;51.062;6.920;2023-02-04T13:44:01;94600.88;;;-144.48;78.54
4123;BME280;2075;51.062;6.920;2023-02-04T13:46:47;94533.81;;;-144.48;78.38
4123;BME280;2075;51.062;6.920;2023-02-04T13:49:34;94627.28;;;-144.48;80.49
4123;BME280;2075;51.062;6.920;2023-02-04T13:52:19;94558.22;;;-144.48;81.54
4123;BME280;2075;51.062;6.920;2023-02-04T13:55:05;94602.91;;;-144.48;80.50
4123;BME280;2075;51.062;6.920;2023-02-04T13:57:50;94541.94;;;-144.48;82.56
4123;BME280;2075;51.062;6.920;2023-02-04T14:00:35;94623.22;;;-144.48;85.13
4123;BME280;2075;51.062;6.920;2023-02-04T14:03:21;94621.19;;;-144.48;86.74
4123;BME280;2075;51.062;6.920;2023-02-04T14:06:08;94617.13;;;-144.48;85.20
4123;BME280;2075;51.062;6.920;2023-02-04T14:08:54;94619.16;;;-144.48;83.47
4123;BME280;2075;51.062;6.920;2023-02-04T14:11:39;94647.59;;;-144.48;83.81
4123;BME280;2075;51.062;6.920;2023-02-04T14:14:24;94635.41;;;-144.48;83.85
4123;BME280;2075;51.062;6.920;2023-02-04T14:17:10;94606.97;;;-144.48;83.37
4123;BME280;2075;51.062;6.920;2023-02-04T14:19:58;94586.66;;;-144.48;84.71
4123;BME280;2075;51.062;6.920;2023-02-04T14:22:46;94566.34;;;-144.48;84.39
4123;BME280;2075;51.062;6.920;2023-02-04T14:25:31;94584.63;;;-144.48;83.68
4123;BME280;2075;51.062;6.920;2023-02-04T14:28:17;94586.66;;;-144.48;81.87
4123;BME280;2075;51.062;6.920;2023-02-04T14:31:02;94594.78;;;-144.48;79.90
4123;BME280;2075;51.062;6.920;2023-02-04T14:33:48;94546.03;;;-144.48;79.50
4123;BME280;2075;51.062;6.920;2023-02-04T14:36:33;94568.38;;;-144.48;78.45